sensor_id;sensor_type;location;lat;lon;timestamp;temperature;humidity
11246;DHT22;59870;50.106;8.580;2023-04-07T00:55:03;12.00;87.50
11246;DHT22;59870;50.106;8.580;2023-04-07T01:14:00;12.10;87.60
11246;DHT22;59870;50.106;8.580;2023-04-07T01:56:54;12.20;87.30
11246;DHT22;59870;50.106;8.580;2023-04-07T02:21:11;12.10;88.10
11246;DHT22;59870;50.106;8.580;2023-04-07T02:30:45;12.10;88.70
11246;DHT22;59870;50.106;8.580;2023-04-07T02:44:41;12.10;89.00
11246;DHT22;59870;50.106;8.580;2023-04-07T02:49:09;12.10;89.90
11246;DHT22;59870;50.106;8.580;2023-04-07T02:53:44;12.10;89.50
11246;DHT22;59870;50.106;8.580;2023-04-07T03:51:00;11.90;90.50
11246;DHT22;59870;50.106;8.580;2023-04-07T04:10:11;11.70;90.80
11246;DHT22;59870;50.106;8.580;2023-04-07T04:34:03;11.90;91.10
11246;DHT22;59870;50.106;8.580;2023-04-07T04:43:26;12.00;91.10
11246;DHT22;59870;50.106;8.580;2023-04-07T05:07:20;11.90;91.20
11246;DHT22;59870;50.106;8.580;2023-04-07T05:12:10;11.90;91.60
11246;DHT22;59870;50.106;8.580;2023-04-07T05:30:46;11.90;91.70
11246;DHT22;59870;50.106;8.580;2023-04-07T05:33:14;12.10;91.70
11246;DHT22;59870;50.106;8.580;2023-04-07T05:35:46;11.90;92.00
11246;DHT22;59870;50.106;8.580;2023-04-07T05:38:15;11.90;91.90
11246;DHT22;59870;50.106;8.580;2023-04-07T05:40:45;11.90;92.00
11246;DHT22;59870;50.106;8.580;2023-04-07T05:43:20;12.10;92.20
11246;DHT22;59870;50.106;8.580;2023-04-07T05:45:48;12.10;92.10
11246;DHT22;59870;50.106;8.580;2023-04-07T05:48:17;12.10;92.20
11246;DHT22;59870;50.106;8.580;2023-04-07T05:50:46;12.10;92.20
11246;DHT22;59870;50.106;8.580;2023-04-07T05:53:18;12.10;92.00
11246;DHT22;59870;50.106;8.580;2023-04-07T05:55:46;11.90;91.70
11246;DHT22;59870;50.106;8.580;2023-04-07T05:58:23;12.10;91.90
11246;DHT22;59870;50.106;8.580;2023-04-07T06:00:53;12.20;91.90
11246;DHT22;59870;50.106;8.580;2023-04-07T06:03:21;12.00;91.80
11246;DHT22;59870;50.106;8.580;2023-04-07T06:05:59;12.20;92.10
11246;DHT22;59870;50.106;8.580;2023-04-07T06:08:27;12.20;92.00
11246;DHT22;59870;50.106;8.580;2023-04-07T06:10:56;12.20;92.00
11246;DHT22;59870;50.106;8.580;2023-04-07T06:13:24;12.20;91.90
11246;DHT22;59870;50.106;8.580;2023-04-07T06:15:54;12.20;92.30
11246;DHT22;59870;50.106;8.580;2023-04-07T06:18:23;12.00;92.20
11246;DHT22;59870;50.106;8.580;2023-04-07T06:20:51;12.20;92.40
11246;DHT22;59870;50.106;8.580;2023-04-07T06:23:18;12.30;92.20
11246;DHT22;59870;50.106;8.580;2023-04-07T06:25:46;12.20;92.20
11246;DHT22;59870;50.106;8.580;2023-04-07T06:28:18;12.20;92.20
11246;DHT22;59870;50.106;8.580;2023-04-07T06:30:46;12.30;92.20
11246;DHT22;59870;50.106;8.580;2023-04-07T06:33:15;12.30;92.20
11246;DHT22;59870;50.106;8.580;2023-04-07T06:35:42;12.30;92.30
11246;DHT22;59870;50.106;8.580;2023-04-07T06:38:10;12.30;92.20
11246;DHT22;59870;50.106;8.580;2023-04-07T06:40:41;12.40;92.20
11246;DHT22;59870;50.106;8.580;2023-04-07T06:43:09;12.40;92.00
11246;DHT22;59870;50.106;8.580;2023-04-07T06:45:44;12.40;92.10
11246;DHT22;59870;50.106;8.580;2023-04-07T06:48:12;12.30;92.20
11246;DHT22;59870;50.106;8.580;2023-04-07T06:50:40;12.00;92.20
11246;DHT22;59870;50.106;8.580;2023-04-07T06:53:08;12.20;92.40
11246;DHT22;59870;50.106;8.580;2023-04-07T06:55:35;12.20;92.70
11246;DHT22;59870;50.106;8.580;2023-04-07T06:58:03;12.00;92.70
11246;DHT22;59870;50.106;8.580;2023-04-07T07:00:31;12.20;92.80
11246;DHT22;59870;50.106;8.580;2023-04-07T07:02:58;11.70;92.80
11246;DHT22;59870;50.106;8.580;2023-04-07T07:05:27;12.00;92.80
11246;DHT22;59870;50.106;8.580;2023-04-07T07:07:55;12.20;93.00
11246;DHT22;59870;50.106;8.580;2023-04-07T07:10:22;12.00;92.80
11246;DHT22;59870;50.106;8.580;2023-04-07T07:12:51;12.00;92.90
11246;DHT22;59870;50.106;8.580;2023-04-07T07:15:19;12.10;93.10
11246;DHT22;59870;50.106;8.580;2023-04-07T07:17:46;11.90;93.20
11246;DHT22;59870;50.106;8.580;2023-04-07T07:20:14;12.00;93.40
11246;DHT22;59870;50.106;8.580;2023-04-07T07:22:42;11.80;93.40
11246;DHT22;59870;50.106;8.580;2023-04-07T07:25:10;11.90;93.60
11246;DHT22;59870;50.106;8.580;2023-04-07T07:27:38;11.90;93.80
11246;DHT22;59870;50.106;8.580;2023-04-07T07:30:07;12.10;94.00
11246;DHT22;59870;50.106;8.580;2023-04-07T07:32:35;12.00;93.90
11246;DHT22;59870;50.106;8.580;2023-04-07T07:35:03;12.30;93.70
11246;DHT22;59870;50.106;8.580;2023-04-07T07:37:32;12.10;93.60
11246;DHT22;59870;50.106;8.580;2023-04-07T07:46:57;12.30;93.10
11246;DHT22;59870;50.106;8.580;2023-04-07T07:49:56;12.30;93.00
11246;DHT22;59870;50.106;8.580;2023-04-07T07:54:05;12.40;93.30
11246;DHT22;59870;50.106;8.580;2023-04-07T07:59:03;12.40;93.20
11246;DHT22;59870;50.106;8.580;2023-04-07T08:03:25;12.50;93.20
11246;DHT22;59870;50.106;8.580;2023-04-07T08:10:51;12.50;92.80
11246;DHT22;59870;50.106;8.580;2023-04-07T08:13:22;12.60;92.60
11246;DHT22;59870;50.106;8.580;2023-04-07T08:15:50;12.70;92.60
11246;DHT22;59870;50.106;8.580;2023-04-07T08:18:18;12.60;92.70
11246;DHT22;59870;50.106;8.580;2023-04-07T08:20:49;12.60;92.70
11246;DHT22;59870;50.106;8.580;2023-04-07T08:23:18;12.70;93.00
11246;DHT22;59870;50.106;8.580;2023-04-07T08:25:45;12.70;92.80
11246;DHT22;59870;50.106;8.580;2023-04-07T08:28:14;12.60;93.00
11246;DHT22;59870;50.106;8.580;2023-04-07T08:30:42;12.70;93.10
11246;DHT22;59870;50.106;8.580;2023-04-07T08:33:10;12.60;92.90
11246;DHT22;59870;50.106;8.580;2023-04-07T08:35:38;12.90;93.10
11246;DHT22;59870;50.106;8.580;2023-04-07T08:38:05;12.80;93.10
11246;DHT22;59870;50.106;8.580;2023-04-07T08:40:34;13.00;93.00
11246;DHT22;59870;50.106;8.580;2023-04-07T08:43:07;12.80;93.00
11246;DHT22;59870;50.106;8.580;2023-04-07T08:45:39;13.00;93.20
11246;DHT22;59870;50.106;8.580;2023-04-07T08:48:17;13.10;93.50
11246;DHT22;59870;50.106;8.580;2023-04-07T08:50:46;12.90;92.90
11246;DHT22;59870;50.106;8.580;2023-04-07T08:53:20;13.20;93.00
11246;DHT22;59870;50.106;8.580;2023-04-07T08:55:51;13.20;93.20
11246;DHT22;59870;50.106;8.580;2023-04-07T08:58:20;13.30;93.10
11246;DHT22;59870;50.106;8.580;2023-04-07T09:00:51;13.10;92.70
11246;DHT22;59870;50.106;8.580;2023-04-07T09:03:21;13.10;92.50
11246;DHT22;59870;50.106;8.580;2023-04-07T09:05:52;13.40;93.00
11246;DHT22;59870;50.106;8.580;2023-04-07T09:08:20;13.20;92.70
11246;DHT22;59870;50.106;8.580;2023-04-07T09:10:49;13.20;92.40
11246;DHT22;59870;50.106;8.580;2023-04-07T09:13:34;13.50;92.60
11246;DHT22;59870;50.106;8.580;2023-04-07T09:16:17;13.30;92.60
11246;DHT22;59870;50.106;8.580;2023-04-07T09:18:45;13.50;92.90
11246;DHT22;59870;50.106;8.580;2023-04-07T09:21:13;13.50;93.00
11246;DHT22;59870;50.106;8.580;2023-04-07T09:23:42;13.40;92.50
11246;DHT22;59870;50.106;8.580;2023-04-07T09:28:48;13.40;92.40
11246;DHT22;59870;50.106;8.580;2023-04-07T09:31:22;13.50;92.40
11246;DHT22;59870;50.106;8.580;2023-04-07T09:33:53;13.70;92.30
11246;DHT22;59870;50.106;8.580;2023-04-07T09:36:24;13.70;92.20
11246;DHT22;59870;50.106;8.580;2023-04-07T09:39:07;13.50;92.30
11246;DHT22;59870;50.106;8.580;2023-04-07T09:41:40;13.50;92.20
11246;DHT22;59870;50.106;8.580;2023-04-07T09:49:11;13.50;92.80
11246;DHT22;59870;50.106;8.580;2023-04-07T09:51:57;13.30;92.70
11246;DHT22;59870;50.106;8.580;2023-04-07T09:54:34;13.60;92.70
11246;DHT22;59870;50.106;8.580;2023-04-07T09:57:06;13.80;92.90
11246;DHT22;59870;50.106;8.580;2023-04-07T09:59:37;13.40;92.70
11246;DHT22;59870;50.106;8.580;2023-04-07T10:02:07;13.90;92.90
11246;DHT22;59870;50.106;8.580;2023-04-07T10:04:35;13.70;92.80
11246;DHT22;59870;50.106;8.580;2023-04-07T10:07:04;13.90;92.80
11246;DHT22;59870;50.106;8.580;2023-04-07T10:09:37;13.80;92.70
11246;DHT22;59870;50.106;8.580;2023-04-07T10:12:05;14.00;92.80
11246;DHT22;59870;50.106;8.580;2023-04-07T10:14:34;14.00;92.80
11246;DHT22;59870;50.106;8.580;2023-04-07T10:17:03;14.00;92.90
11246;DHT22;59870;50.106;8.580;2023-04-07T10:19:32;13.90;92.70
11246;DHT22;59870;50.106;8.580;2023-04-07T10:22:16;13.90;93.20
11246;DHT22;59870;50.106;8.580;2023-04-07T10:24:49;13.90;92.90
11246;DHT22;59870;50.106;8.580;2023-04-07T10:27:21;14.10;92.80
11246;DHT22;59870;50.106;8.580;2023-04-07T10:29:50;14.20;93.00
11246;DHT22;59870;50.106;8.580;2023-04-07T10:32:19;14.30;93.10
11246;DHT22;59870;50.106;8.580;2023-04-07T10:37:17;14.20;92.60
11246;DHT22;59870;50.106;8.580;2023-04-07T10:39:48;14.30;92.50
11246;DHT22;59870;50.106;8.580;2023-04-07T10:45:05;14.40;92.00
11246;DHT22;59870;50.106;8.580;2023-04-07T10:50:31;14.50;91.80
11246;DHT22;59870;50.106;8.580;2023-04-07T10:53:09;14.80;91.70
11246;DHT22;59870;50.106;8.580;2023-04-07T11:03:52;14.90;91.50
11246;DHT22;59870;50.106;8.580;2023-04-07T11:06:23;14.60;91.20
11246;DHT22;59870;50.106;8.580;2023-04-07T11:48:35;14.60;91.90
11246;DHT22;59870;50.106;8.580;2023-04-07T11:51:22;14.60;91.60
11246;DHT22;59870;50.106;8.580;2023-04-07T11:53:55;14.60;91.80
11246;DHT22;59870;50.106;8.580;2023-04-07T12:25:51;14.50;91.70
11246;DHT22;59870;50.106;8.580;2023-04-07T12:28:23;14.50;91.40
11246;DHT22;59870;50.106;8.580;2023-04-07T12:30:54;14.90;91.80
11246;DHT22;59870;50.106;8.580;2023-04-07T12:33:30;14.50;91.60
11246;DHT22;59870;50.106;8.580;2023-04-07T12:36:00;14.30;91.80
11246;DHT22;59870;50.106;8.580;2023-04-07T12:38:29;14.40;91.60
11246;DHT22;59870;50.106;8.580;2023-04-07T12:41:01;14.40;91.70
11246;DHT22;59870;50.106;8.580;2023-04-07T12:43:33;13.80;91.90
11246;DHT22;59870;50.106;8.580;2023-04-07T12:46:01;14.70;92.10
11246;DHT22;59870;50.106;8.580;2023-04-07T12:48:30;14.80;92.30
11246;DHT22;59870;50.106;8.580;2023-04-07T12:50:58;14.70;92.30
11246;DHT22;59870;50.106;8.580;2023-04-07T13:28:25;15.30;91.50
11246;DHT22;59870;50.106;8.580;2023-04-07T13:30:56;15.40;91.00
11246;DHT22;59870;50.106;8.580;2023-04-07T13:33:33;15.90;90.60
11246;DHT22;59870;50.106;8.580;2023-04-07T13:36:00;16.00;90.70
11246;DHT22;59870;50.106;8.580;2023-04-07T13:57:28;16.20;88.40
11246;DHT22;59870;50.106;8.580;2023-04-07T15:11:07;15.90;83.80
11246;DHT22;59870;50.106;8.580;2023-04-07T15:19:59;15.80;83.20
11246;DHT22;59870;50.106;8.580;2023-04-07T15:22:32;16.20;83.60
11246;DHT22;59870;50.106;8.580;2023-04-07T15:25:07;15.80;84.10
11246;DHT22;59870;50.106;8.580;2023-04-07T15:27:42;15.80;83.60
11246;DHT22;59870;50.106;8.580;2023-04-07T15:52:21;15.90;82.90
11246;DHT22;59870;50.106;8.580;2023-04-07T16:07:55;16.00;83.40
11246;DHT22;59870;50.106;8.580;2023-04-07T16:36:29;16.00;83.10
11246;DHT22;59870;50.106;8.580;2023-04-07T16:44:15;16.10;83.50
11246;DHT22;59870;50.106;8.580;2023-04-07T16:52:20;15.20;82.80
11246;DHT22;59870;50.106;8.580;2023-04-07T17:11:52;15.30;84.20
11246;DHT22;59870;50.106;8.580;2023-04-07T17:14:20;15.30;82.40
11246;DHT22;59870;50.106;8.580;2023-04-07T17:16:58;14.70;82.00
11246;DHT22;59870;50.106;8.580;2023-04-07T17:19:25;15.20;82.60
11246;DHT22;59870;50.106;8.580;2023-04-07T17:21:57;15.60;83.60
11246;DHT22;59870;50.106;8.580;2023-04-07T17:25:07;15.10;82.90
11246;DHT22;59870;50.106;8.580;2023-04-07T17:27:54;15.10;83.60
11246;DHT22;59870;50.106;8.580;2023-04-07T17:30:26;15.50;83.30
11246;DHT22;59870;50.106;8.580;2023-04-07T17:32:56;15.60;83.40
11246;DHT22;59870;50.106;8.580;2023-04-07T17:35:25;15.40;82.70
11246;DHT22;59870;50.106;8.580;2023-04-07T17:37:59;14.90;82.40
11246;DHT22;59870;50.106;8.580;2023-04-07T17:40:35;14.40;81.90
11246;DHT22;59870;50.106;8.580;2023-04-07T17:43:11;14.90;83.30
11246;DHT22;59870;50.106;8.580;2023-04-07T17:45:42;14.60;82.30
11246;DHT22;59870;50.106;8.580;2023-04-07T17:48:14;14.70;82.80
11246;DHT22;59870;50.106;8.580;2023-04-07T17:50:44;14.60;83.20
11246;DHT22;59870;50.106;8.580;2023-04-07T17:53:18;14.60;82.80
11246;DHT22;59870;50.106;8.580;2023-04-07T17:55:47;14.70;83.30
11246;DHT22;59870;50.106;8.580;2023-04-07T17:58:17;14.60;83.40
11246;DHT22;59870;50.106;8.580;2023-04-07T18:00:47;14.60;83.90
11246;DHT22;59870;50.106;8.580;2023-04-07T18:03:20;14.50;83.90
11246;DHT22;59870;50.106;8.580;2023-04-07T18:05:50;14.40;84.30
11246;DHT22;59870;50.106;8.580;2023-04-07T18:08:20;14.40;84.40
11246;DHT22;59870;50.106;8.580;2023-04-07T18:10:48;14.30;84.40
11246;DHT22;59870;50.106;8.580;2023-04-07T18:13:17;14.30;84.70
11246;DHT22;59870;50.106;8.580;2023-04-07T18:15:49;14.80;85.70
11246;DHT22;59870;50.106;8.580;2023-04-07T18:18:18;14.50;85.40
11246;DHT22;59870;50.106;8.580;2023-04-07T18:20:48;14.10;85.10
11246;DHT22;59870;50.106;8.580;2023-04-07T18:23:21;14.10;85.30
11246;DHT22;59870;50.106;8.580;2023-04-07T18:25:55;14.00;85.70
11246;DHT22;59870;50.106;8.580;2023-04-07T18:28:23;14.00;85.70
11246;DHT22;59870;50.106;8.580;2023-04-07T18:31:16;14.00;85.60
11246;DHT22;59870;50.106;8.580;2023-04-07T18:34:12;14.00;85.90
11246;DHT22;59870;50.106;8.580;2023-04-07T18:36:40;13.90;85.90
11246;DHT22;59870;50.106;8.580;2023-04-07T18:39:10;13.90;86.30
11246;DHT22;59870;50.106;8.580;2023-04-07T18:41:39;13.80;86.60
11246;DHT22;59870;50.106;8.580;2023-04-07T18:44:11;13.80;86.80
11246;DHT22;59870;50.106;8.580;2023-04-07T18:46:39;13.80;87.20
11246;DHT22;59870;50.106;8.580;2023-04-07T18:49:08;13.80;87.30
11246;DHT22;59870;50.106;8.580;2023-04-07T18:56:21;13.80;87.00
11246;DHT22;59870;50.106;8.580;2023-04-07T19:06:31;13.80;86.60
11246;DHT22;59870;50.106;8.580;2023-04-07T19:18:20;13.80;86.60
11246;DHT22;59870;50.106;8.580;2023-04-07T19:21:24;13.80;86.10
11246;DHT22;59870;50.106;8.580;2023-04-07T19:25:52;13.80;86.30
11246;DHT22;59870;50.106;8.580;2023-04-07T19:30:26;13.80;86.00
11246;DHT22;59870;50.106;8.580;2023-04-07T19:48:31;13.40;86.30
11246;DHT22;59870;50.106;8.580;2023-04-07T20:00:38;13.40;86.70
11246;DHT22;59870;50.106;8.580;2023-04-07T20:03:41;13.30;87.10
11246;DHT22;59870;50.106;8.580;2023-04-07T20:06:18;13.60;86.80
11246;DHT22;59870;50.106;8.580;2023-04-07T20:08:57;13.70;88.00
11246;DHT22;59870;50.106;8.580;2023-04-07T20:11:43;13.30;87.40
11246;DHT22;59870;50.106;8.580;2023-04-07T20:14:37;13.20;87.90
11246;DHT22;59870;50.106;8.580;2023-04-07T20:18:08;13.20;87.50
11246;DHT22;59870;50.106;8.580;2023-04-07T20:21:08;13.60;88.20
11246;DHT22;59870;50.106;8.580;2023-04-07T20:24:40;13.50;88.10
11246;DHT22;59870;50.106;8.580;2023-04-07T20:27:53;13.10;87.60
11246;DHT22;59870;50.106;8.580;2023-04-07T20:30:24;13.30;87.00
11246;DHT22;59870;50.106;8.580;2023-04-07T20:33:06;13.00;87.70
11246;DHT22;59870;50.106;8.580;2023-04-07T20:35:44;12.70;87.40
11246;DHT22;59870;50.106;8.580;2023-04-07T20:38:31;13.00;88.30
11246;DHT22;59870;50.106;8.580;2023-04-07T20:41:14;13.00;88.50
11246;DHT22;59870;50.106;8.580;2023-04-07T20:43:50;13.40;89.00
11246;DHT22;59870;50.106;8.580;2023-04-07T20:46:32;13.60;89.00
11246;DHT22;59870;50.106;8.580;2023-04-07T20:53:24;12.90;88.90
11246;DHT22;59870;50.106;8.580;2023-04-07T22:17:09;12.30;90.50
11246;DHT22;59870;50.106;8.580;2023-04-07T23:01:46;12.10;91.10
11246;DHT22;59870;50.106;8.580;2023-04-07T23:19:19;12.10;91.10
11246;DHT22;59870;50.106;8.580;2023-04-07T23:21:59;11.60;90.80
11246;DHT22;59870;50.106;8.580;2023-04-07T23:39:25;11.90;91.30
11246;DHT22;59870;50.106;8.580;2023-04-07T23:49:02;12.00;91.30
11246;DHT22;59870;50.106;8.580;2023-04-07T23:54:08;11.60;91.30
